Time;durP1;ratioP1;P1;durP2;ratioP2;P2;SDS_P1;SDS_P2;PMS_P1;PMS_P2;Temp;Humidity;BMP_temperature;BMP_pressure;BME280_temperature;BME280_humidity;BME280_pressure;Samples;Min_cycle;Max_cycle;Signal;HPM_P1;HPM_P2
2023/09/01 00:00:12;;;;;;;5.43;4.05;;;12.60;99.90;;;;;;5028714;28;20037;-69
2023/09/01 00:02:39;;;;;;;4.38;3.25;;;12.60;99.90;;;;;;5028932;28;20092;-69
2023/09/01 00:05:05;;;;;;;5.47;3.30;;;12.60;99.90;;;;;;5028586;28;20053;-69
2023/09/01 00:07:32;;;;;;;4.82;3.67;;;12.60;99.90;;;;;;5028973;28;20054;-69
2023/09/01 00:09:58;;;;;;;9.38;4.30;;;12.50;99.90;;;;;;5028906;28;20045;-69
2023/09/01 00:12:23;;;;;;;8.65;4.25;;;12.50;99.90;;;;;;5028678;28;20041;-69
2023/09/01 00:14:49;;;;;;;5.60;4.07;;;12.50;99.90;;;;;;5028459;28;20052;-69
2023/09/01 00:17:15;;;;;;;6.43;4.60;;;12.50;99.90;;;;;;5010382;28;20058;-69
2023/09/01 00:19:41;;;;;;;12.63;5.97;;;12.50;99.90;;;;;;4994625;28;20049;-69
2023/09/01 00:22:07;;;;;;;8.25;5.57;;;12.50;99.90;;;;;;5028937;28;20428;-69
2023/09/01 00:24:33;;;;;;;8.68;5.40;;;12.40;99.90;;;;;;5028633;28;20050;-69
2023/09/01 00:26:59;;;;;;;6.35;4.65;;;12.40;99.90;;;;;;5028535;28;20496;-69
2023/09/01 00:29:25;;;;;;;5.47;4.05;;;12.40;99.90;;;;;;5011065;28;20488;-69
2023/09/01 00:31:51;;;;;;;6.47;3.88;;;12.40;99.90;;;;;;5028852;28;20045;-69
2023/09/01 00:34:17;;;;;;;7.32;4.45;;;12.40;99.90;;;;;;5028460;28;20037;-69
2023/09/01 00:36:43;;;;;;;7.40;4.07;;;12.40;99.90;;;;;;5028446;28;20049;-69
2023/09/01 00:39:09;;;;;;;8.00;4.45;;;12.40;99.90;;;;;;5013383;28;20260;-69
2023/09/01 00:41:36;;;;;;;10.65;4.32;;;12.30;99.90;;;;;;5032539;28;20045;-69
2023/09/01 00:44:03;;;;;;;6.00;3.97;;;12.30;99.90;;;;;;5031996;28;20120;-69
2023/09/01 00:46:31;;;;;;;8.85;3.75;;;12.30;99.90;;;;;;5032138;28;20048;-69
2023/09/01 00:48:58;;;;;;;5.30;3.70;;;12.30;99.90;;;;;;5032296;28;20416;-69
2023/09/01 00:51:27;;;;;;;6.90;4.10;;;12.30;99.90;;;;;;5031851;28;20047;-69
2023/09/01 00:53:53;;;;;;;5.85;3.75;;;12.30;99.90;;;;;;5014539;28;20123;-69
2023/09/01 00:56:19;;;;;;;3.85;3.45;;;12.30;99.90;;;;;;5014303;28;20045;-68
2023/09/01 00:58:45;;;;;;;6.53;4.32;;;12.30;99.90;;;;;;5032377;28;20125;-69
2023/09/01 01:01:11;;;;;;;5.15;3.90;;;12.30;99.90;;;;;;5031793;28;20044;-68
2023/09/01 01:03:38;;;;;;;5.70;4.00;;;12.30;99.90;;;;;;5031421;28;20045;-69
2023/09/01 01:06:20;;;;;;;9.65;4.03;;;12.30;99.90;;;;;;5031628;28;20049;-69
2023/09/01 01:09:10;;;;;;;8.00;4.15;;;12.30;99.90;;;;;;5013749;28;20049;-69
2023/09/01 01:12:08;;;;;;;6.85;4.25;;;12.30;99.90;;;;;;5031882;28;20108;-69
2023/09/01 01:14:40;;;;;;;5.28;4.50;;;12.30;99.90;;;;;;5012978;28;20461;-69
2023/09/01 01:17:08;;;;;;;3.78;3.25;;;12.30;99.90;;;;;;5031219;28;20132;-70
2023/09/01 01:19:52;;;;;;;10.27;4.20;;;12.40;99.90;;;;;;5031596;28;20049;-69
2023/09/01 01:22:28;;;;;;;5.97;4.65;;;12.30;99.90;;;;;;5013820;28;20126;-69
2023/09/01 01:24:54;;;;;;;5.15;4.22;;;12.40;99.90;;;;;;5030936;28;20053;-70
2023/09/01 01:27:19;;;;;;;5.97;4.00;;;12.40;99.90;;;;;;5013586;28;20551;-69
2023/09/01 01:29:47;;;;;;;8.43;4.90;;;12.40;99.90;;;;;;5031544;28;20037;-69
2023/09/01 01:32:14;;;;;;;8.32;4.63;;;12.30;99.90;;;;;;5031131;28;20125;-69
2023/09/01 01:34:48;;;;;;;4.88;4.07;;;12.40;99.90;;;;;;5031304;28;20057;-70
2023/09/01 01:37:21;;;;;;;5.95;4.10;;;12.40;99.90;;;;;;5013239;28;20045;-69
2023/09/01 01:39:50;;;;;;;6.20;3.83;;;12.40;99.90;;;;;;5013209;28;20045;-69
2023/09/01 01:42:18;;;;;;;4.90;4.20;;;12.30;99.90;;;;;;5013632;28;20054;-69
2023/09/01 01:44:48;;;;;;;8.00;4.43;;;12.30;99.90;;;;;;5030845;28;20484;-69
2023/09/01 01:47:14;;;;;;;7.80;4.68;;;12.40;99.90;;;;;;5030866;28;20050;-70
2023/09/01 01:49:40;;;;;;;7.43;5.00;;;12.30;99.90;;;;;;5030240;28;20045;-69
2023/09/01 01:52:05;;;;;;;10.20;4.80;;;12.40;99.90;;;;;;5031053;28;20330;-70
2023/09/01 01:54:32;;;;;;;6.15;4.57;;;12.50;99.90;;;;;;5030785;28;20094;-69
2023/09/01 01:56:58;;;;;;;6.07;4.47;;;12.50;99.90;;;;;;5012662;28;20114;-70
2023/09/01 01:59:24;;;;;;;10.40;4.90;;;12.50;99.90;;;;;;5030845;28;20606;-69
2023/09/01 02:01:50;;;;;;;6.75;4.20;;;12.50;99.90;;;;;;5030302;28;20037;-69
2023/09/01 02:04:15;;;;;;;4.72;4.22;;;12.40;99.90;;;;;;5030538;28;20175;-70
2023/09/01 02:06:41;;;;;;;8.07;4.05;;;12.40;99.90;;;;;;5030512;28;20051;-70
2023/09/01 02:09:10;;;;;;;5.05;4.05;;;12.40;99.90;;;;;;5030646;28;20045;-70
2023/09/01 02:11:36;;;;;;;6.95;4.50;;;12.30;99.90;;;;;;5012867;28;20128;-69
2023/09/01 02:14:02;;;;;;;7.15;4.40;;;12.30;99.90;;;;;;5030224;28;20544;-69
2023/09/01 02:16:28;;;;;;;7.68;4.53;;;12.40;99.90;;;;;;5029942;28;20084;-70
2023/09/01 02:18:54;;;;;;;6.60;3.80;;;12.40;99.90;;;;;;5030202;28;20085;-69
2023/09/01 02:21:20;;;;;;;6.03;4.00;;;12.30;99.90;;;;;;5030407;28;20038;-69
2023/09/01 02:23:50;;;;;;;4.40;4.00;;;12.30;99.90;;;;;;5030596;28;20060;-69
2023/09/01 02:26:23;;;;;;;5.95;4.18;;;12.30;99.90;;;;;;5029869;28;20048;-69
2023/09/01 02:28:49;;;;;;;6.00;4.47;;;12.30;99.90;;;;;;5012583;28;20472;-69
2023/09/01 02:31:15;;;;;;;8.05;3.92;;;12.40;99.90;;;;;;5011846;28;20045;-69
2023/09/01 02:33:43;;;;;;;9.93;4.63;;;12.30;99.90;;;;;;5030145;28;20052;-69
2023/09/01 02:36:24;;;;;;;6.78;3.90;;;12.30;99.90;;;;;;5012374;28;20132;-69
2023/09/01 02:38:51;;;;;;;4.33;3.63;;;12.30;99.90;;;;;;5012254;28;20107;-70
2023/09/01 02:41:17;;;;;;;5.32;4.45;;;12.20;99.90;;;;;;5012292;28;20106;-69
2023/09/01 02:43:42;;;;;;;7.57;4.38;;;12.30;99.90;;;;;;5029765;28;20497;-70
2023/09/01 02:46:08;;;;;;;6.00;4.00;;;12.30;99.90;;;;;;5011445;28;20049;-69
2023/09/01 02:48:34;;;;;;;5.80;4.20;;;12.20;99.90;;;;;;5029916;28;20092;-70
2023/09/01 02:50:59;;;;;;;6.63;4.45;;;12.20;99.90;;;;;;5011829;28;20067;-69
2023/09/01 02:53:25;;;;;;;5.05;4.00;;;12.20;99.90;;;;;;5011776;28;20053;-69
2023/09/01 02:55:51;;;;;;;8.52;4.32;;;12.20;99.90;;;;;;5029898;28;20029;-69
2023/09/01 02:58:16;;;;;;;7.22;4.70;;;12.20;99.90;;;;;;5029907;28;20103;-69
2023/09/01 03:00:44;;;;;;;4.93;4.07;;;12.20;99.90;;;;;;4995138;28;20041;-69
2023/09/01 03:03:10;;;;;;;6.25;4.22;;;12.20;99.90;;;;;;5029323;28;20049;-69
2023/09/01 03:05:36;;;;;;;5.78;4.53;;;12.30;99.90;;;;;;5011918;28;20051;-69
2023/09/01 03:08:02;;;;;;;8.40;5.03;;;12.30;99.90;;;;;;5029461;28;20037;-69
2023/09/01 03:10:28;;;;;;;7.07;5.00;;;12.30;99.90;;;;;;5029643;28;20052;-69
2023/09/01 03:12:54;;;;;;;8.63;4.93;;;12.30;99.90;;;;;;5029362;28;20127;-69
2023/09/01 03:15:19;;;;;;;5.90;4.57;;;12.30;99.90;;;;;;5011467;28;20163;-69
2023/09/01 03:17:45;;;;;;;9.23;4.60;;;12.20;99.90;;;;;;5029301;28;20401;-70
2023/09/01 03:20:12;;;;;;;5.55;4.15;;;12.20;99.90;;;;;;5011447;28;20060;-70
2023/09/01 03:22:38;;;;;;;6.90;5.70;;;12.30;99.90;;;;;;5011407;28;20095;-70
2023/09/01 03:25:09;;;;;;;9.90;4.60;;;12.20;99.90;;;;;;5028927;28;20428;-69
2023/09/01 03:27:39;;;;;;;6.55;4.75;;;12.20;99.90;;;;;;5029069;28;20491;-70
2023/09/01 03:30:06;;;;;;;9.30;4.43;;;12.20;99.90;;;;;;5029373;28;20073;-69
2023/09/01 03:32:33;;;;;;;6.45;4.43;;;12.20;99.90;;;;;;5029135;28;20068;-69
2023/09/01 03:35:02;;;;;;;7.18;4.72;;;12.10;99.90;;;;;;5011246;28;20124;-69
2023/09/01 03:37:28;;;;;;;7.13;4.95;;;12.10;99.90;;;;;;5029141;28;20033;-70
2023/09/01 03:39:54;;;;;;;6.85;4.45;;;12.10;99.90;;;;;;5011375;28;20053;-69
2023/09/01 03:42:19;;;;;;;6.03;4.88;;;12.10;99.90;;;;;;5010886;28;20176;-69
2023/09/01 03:44:45;;;;;;;7.75;4.40;;;12.10;99.90;;;;;;5011330;28;20053;-69
2023/09/01 03:47:11;;;;;;;5.50;4.45;;;12.10;99.90;;;;;;5011327;28;20045;-70
2023/09/01 03:49:36;;;;;;;7.88;4.72;;;12.00;99.90;;;;;;5028944;28;20370;-69
2023/09/01 03:52:03;;;;;;;4.90;4.18;;;12.00;99.90;;;;;;5011334;28;20119;-70
2023/09/01 03:54:29;;;;;;;6.05;4.50;;;12.00;99.90;;;;;;5029074;28;20045;-70
2023/09/01 03:56:54;;;;;;;6.15;4.25;;;12.00;99.90;;;;;;5028627;28;20063;-69
2023/09/01 03:59:20;;;;;;;5.78;4.05;;;12.00;99.90;;;;;;5011229;28;20500;-70
2023/09/01 04:01:47;;;;;;;6.80;4.47;;;12.00;99.90;;;;;;5028777;28;20034;-70
2023/09/01 04:04:13;;;;;;;7.82;4.82;;;11.90;99.90;;;;;;5028993;28;20460;-70
2023/09/01 04:06:40;;;;;;;4.32;3.85;;;12.00;99.90;;;;;;5011259;28;20669;-69
2023/09/01 04:09:06;;;;;;;7.90;4.47;;;12.00;99.90;;;;;;5028645;28;20081;-69
2023/09/01 04:11:32;;;;;;;6.97;4.50;;;12.00;99.90;;;;;;5028630;28;20104;-69
2023/09/01 04:13:58;;;;;;;6.70;4.20;;;11.90;99.90;;;;;;5031357;28;20045;-69
2023/09/01 04:16:24;;;;;;;8.23;4.15;;;12.00;99.90;;;;;;5014774;28;20508;-70
2023/09/01 04:18:51;;;;;;;4.88;4.25;;;12.00;99.90;;;;;;5033137;28;20053;-69
2023/09/01 04:21:17;;;;;;;4.85;4.18;;;12.00;99.90;;;;;;5033809;28;20037;-69
2023/09/01 04:23:43;;;;;;;7.88;4.63;;;11.90;99.90;;;;;;5032828;28;20049;-69
2023/09/01 04:26:08;;;;;;;5.55;4.32;;;11.90;99.90;;;;;;5032082;28;20382;-69
2023/09/01 04:28:34;;;;;;;7.28;4.13;;;11.90;99.90;;;;;;5032496;28;20409;-69
2023/09/01 04:31:02;;;;;;;6.38;3.75;;;11.80;99.90;;;;;;5032830;28;20095;-69
2023/09/01 04:33:28;;;;;;;5.80;3.90;;;11.80;99.90;;;;;;5032605;28;20501;-69
2023/09/01 04:36:05;;;;;;;4.68;4.10;;;11.70;99.90;;;;;;5014615;28;20045;-69
2023/09/01 04:38:31;;;;;;;4.43;3.60;;;11.70;99.90;;;;;;5032345;28;20041;-69
2023/09/01 04:40:58;;;;;;;7.60;4.10;;;11.70;99.90;;;;;;5032205;28;20061;-69
2023/09/01 04:43:27;;;;;;;8.48;3.90;;;11.70;99.90;;;;;;5032402;28;20053;-69
2023/09/01 04:45:54;;;;;;;4.32;3.85;;;11.70;99.90;;;;;;5032176;28;20056;-69
2023/09/01 04:48:21;;;;;;;5.32;3.92;;;11.70;99.90;;;;;;5031935;28;20076;-69
2023/09/01 04:50:47;;;;;;;7.00;3.70;;;11.70;99.90;;;;;;5013952;28;20087;-69
2023/09/01 04:53:12;;;;;;;4.72;4.22;;;11.70;99.90;;;;;;5013856;28;20749;-70
2023/09/01 04:55:38;;;;;;;5.28;4.32;;;11.70;99.90;;;;;;5032023;28;20164;-69
2023/09/01 04:58:04;;;;;;;5.47;4.20;;;11.70;99.90;;;;;;5014282;28;20053;-70
2023/09/01 05:00:30;;;;;;;6.65;4.10;;;11.70;99.90;;;;;;5031837;28;20045;-69
2023/09/01 05:02:55;;;;;;;7.95;4.65;;;11.70;99.90;;;;;;5013739;28;20049;-69
2023/09/01 05:05:21;;;;;;;6.35;4.95;;;11.70;99.90;;;;;;5031872;28;20037;-69
2023/09/01 05:07:47;;;;;;;5.47;4.50;;;11.70;99.90;;;;;;5013757;28;20698;-70
2023/09/01 05:10:13;;;;;;;6.40;4.63;;;11.60;99.90;;;;;;5013507;28;20048;-69
2023/09/01 05:12:38;;;;;;;5.38;4.45;;;11.70;99.90;;;;;;5031824;28;20076;-69
2023/09/01 05:15:05;;;;;;;6.18;4.65;;;11.70;99.90;;;;;;5013649;28;20456;-69
2023/09/01 05:17:31;;;;;;;5.28;4.05;;;11.70;99.90;;;;;;5031415;28;20061;-70
2023/09/01 05:19:57;;;;;;;7.45;4.05;;;11.70;99.90;;;;;;5013972;28;20053;-69
2023/09/01 05:22:24;;;;;;;5.15;4.00;;;11.80;99.90;;;;;;5013999;28;20045;-70
2023/09/01 05:24:50;;;;;;;9.18;4.53;;;11.80;99.90;;;;;;5012486;28;20534;-70
2023/09/01 05:27:19;;;;;;;6.70;4.32;;;11.80;99.90;;;;;;5031589;28;20121;-69
2023/09/01 05:29:48;;;;;;;6.55;4.50;;;11.90;99.90;;;;;;5031771;28;20120;-69
2023/09/01 05:32:15;;;;;;;9.23;4.82;;;11.90;99.90;;;;;;5031318;28;20080;-69
2023/09/01 05:34:41;;;;;;;6.78;4.88;;;12.00;99.90;;;;;;5030947;28;20053;-69
2023/09/01 05:37:08;;;;;;;6.85;4.60;;;11.90;99.90;;;;;;5013198;28;20045;-69
2023/09/01 05:39:35;;;;;;;6.43;4.65;;;12.00;99.90;;;;;;5030867;28;20550;-69
2023/09/01 05:42:01;;;;;;;7.15;5.28;;;12.00;99.90;;;;;;5031088;28;20053;-70
2023/09/01 05:44:26;;;;;;;8.48;4.97;;;12.10;99.90;;;;;;5030986;28;20383;-70
2023/09/01 05:46:52;;;;;;;7.65;5.35;;;12.00;99.90;;;;;;5031009;28;20401;-69
2023/09/01 05:49:18;;;;;;;6.30;5.03;;;12.10;99.90;;;;;;5012605;28;20052;-70
2023/09/01 05:51:43;;;;;;;8.82;5.80;;;12.10;99.90;;;;;;5031029;28;20041;-69
2023/09/01 05:54:09;;;;;;;6.63;5.50;;;12.10;99.90;;;;;;5030561;28;20045;-70
2023/09/01 05:56:35;;;;;;;9.90;5.60;;;12.20;99.90;;;;;;5012692;28;20481;-70
2023/09/01 05:59:00;;;;;;;12.23;5.30;;;12.20;99.90;;;;;;5030682;28;20048;-69
2023/09/01 06:01:32;;;;;;;9.95;5.80;;;12.30;99.90;;;;;;5012645;28;20453;-70
2023/09/01 06:03:59;;;;;;;10.20;6.85;;;12.40;99.90;;;;;;5030542;28;20072;-70
2023/09/01 06:06:24;;;;;;;11.43;7.13;;;12.40;99.90;;;;;;5030832;28;20120;-69
2023/09/01 06:08:50;;;;;;;11.68;7.82;;;12.50;99.90;;;;;;5030233;28;20162;-70
2023/09/01 06:11:16;;;;;;;10.18;6.90;;;12.50;99.90;;;;;;5012249;28;20049;-70
2023/09/01 06:13:42;;;;;;;11.07;8.68;;;12.50;99.90;;;;;;5012308;28;20049;-70
2023/09/01 06:16:09;;;;;;;14.90;7.55;;;12.60;99.90;;;;;;5030437;28;20453;-70
2023/09/01 06:18:35;;;;;;;10.32;7.47;;;12.80;99.90;;;;;;5030315;28;20152;-70
2023/09/01 06:21:01;;;;;;;13.65;8.05;;;12.90;99.90;;;;;;5030206;28;20112;-70
2023/09/01 06:23:27;;;;;;;12.40;8.38;;;12.90;99.90;;;;;;5030179;28;20056;-70
2023/09/01 06:25:53;;;;;;;12.85;8.77;;;12.90;99.90;;;;;;5030002;28;20124;-70
2023/09/01 06:28:18;;;;;;;15.40;8.63;;;12.90;99.90;;;;;;5030081;28;20133;-70
2023/09/01 06:30:44;;;;;;;13.73;8.52;;;13.00;99.90;;;;;;5012431;28;20574;-70
2023/09/01 06:33:10;;;;;;;11.95;8.90;;;13.00;99.90;;;;;;5011938;28;20053;-70
2023/09/01 06:35:36;;;;;;;13.43;8.73;;;13.10;99.90;;;;;;5012134;28;20049;-70
2023/09/01 06:38:06;;;;;;;13.60;8.27;;;13.20;99.90;;;;;;5011728;28;20088;-70
2023/09/01 06:40:32;;;;;;;15.88;8.80;;;13.20;99.90;;;;;;5011997;28;20056;-70
2023/09/01 06:42:58;;;;;;;15.20;9.10;;;13.20;99.90;;;;;;5012240;28;20393;-70
2023/09/01 06:45:24;;;;;;;14.50;10.13;;;13.30;99.90;;;;;;5029748;28;20052;-70
2023/09/01 06:47:55;;;;;;;15.80;9.52;;;13.30;99.90;;;;;;5029628;28;20041;-70
2023/09/01 06:50:23;;;;;;;17.45;11.32;;;13.30;99.90;;;;;;5029469;28;20049;-70
2023/09/01 06:52:50;;;;;;;15.77;10.63;;;13.30;99.90;;;;;;5029771;28;20053;-70
2023/09/01 06:55:16;;;;;;;17.80;11.13;;;13.40;99.90;;;;;;5029476;28;20045;-70
2023/09/01 06:57:42;;;;;;;19.92;10.95;;;13.40;99.90;;;;;;5029491;28;20396;-70
2023/09/01 07:00:09;;;;;;;16.65;12.02;;;13.50;99.90;;;;;;5029435;28;20037;-70
2023/09/01 07:02:34;;;;;;;19.27;12.40;;;13.50;99.90;;;;;;5029222;28;20038;-70
2023/09/01 07:05:00;;;;;;;19.45;12.38;;;13.60;99.90;;;;;;5011978;28;20045;-70
2023/09/01 07:07:26;;;;;;;20.40;13.32;;;13.70;99.90;;;;;;5029395;28;20072;-71
2023/09/01 07:09:52;;;;;;;18.77;11.77;;;13.70;99.90;;;;;;5011501;28;20503;-70
2023/09/01 07:12:18;;;;;;;20.70;12.30;;;13.80;99.90;;;;;;5029277;28;20064;-70
2023/09/01 07:14:43;;;;;;;18.55;12.15;;;13.80;99.90;;;;;;5011385;28;20057;-70
2023/09/01 07:17:12;;;;;;;19.88;12.48;;;13.90;99.90;;;;;;5029439;28;20580;-70
2023/09/01 07:19:38;;;;;;;19.40;11.60;;;14.00;99.90;;;;;;5029458;28;20064;-70
2023/09/01 07:22:05;;;;;;;19.40;12.95;;;14.10;99.90;;;;;;5029555;28;20111;-70
2023/09/01 07:24:32;;;;;;;19.40;11.95;;;14.10;99.90;;;;;;5029346;28;20045;-70
2023/09/01 07:26:57;;;;;;;19.88;14.35;;;14.20;99.90;;;;;;5011801;28;20049;-70
2023/09/01 07:29:24;;;;;;;21.77;12.13;;;14.20;99.90;;;;;;5011715;28;20041;-70
2023/09/01 07:31:50;;;;;;;24.95;13.13;;;14.30;99.90;;;;;;5029274;28;20415;-70
2023/09/01 07:34:15;;;;;;;23.15;13.50;;;14.30;99.90;;;;;;5028845;28;20045;-70
2023/09/01 07:36:41;;;;;;;20.88;13.15;;;14.40;99.90;;;;;;5029113;28;20382;-69
2023/09/01 07:39:07;;;;;;;19.55;13.68;;;14.40;99.90;;;;;;5028854;28;20041;-70
2023/09/01 07:41:33;;;;;;;20.13;13.15;;;14.50;99.90;;;;;;5011286;28;20037;-70
2023/09/01 07:43:58;;;;;;;29.75;14.40;;;14.50;99.90;;;;;;5028694;28;20053;-70
2023/09/01 07:46:24;;;;;;;24.30;13.20;;;14.60;99.90;;;;;;5011357;28;20057;-69
2023/09/01 07:48:50;;;;;;;25.55;14.43;;;14.70;99.90;;;;;;5010296;28;20123;-70
2023/09/01 07:51:15;;;;;;;21.63;13.60;;;14.70;99.90;;;;;;5028714;28;20045;-70
2023/09/01 07:53:41;;;;;;;22.92;14.00;;;14.80;99.90;;;;;;5029080;28;20037;-70
2023/09/01 07:56:10;;;;;;;23.10;13.32;;;14.80;99.90;;;;;;5011021;28;20041;-69
2023/09/01 07:58:36;;;;;;;22.80;14.27;;;14.80;99.90;;;;;;5029007;28;20459;-69
2023/09/01 08:01:01;;;;;;;27.38;15.05;;;14.90;99.90;;;;;;5028975;28;20072;-70
2023/09/01 08:03:27;;;;;;;26.20;14.82;;;14.90;99.90;;;;;;5011004;28;20127;-70
2023/09/01 08:05:53;;;;;;;23.13;13.75;;;15.00;99.90;;;;;;5010996;28;20493;-70
2023/09/01 08:08:18;;;;;;;28.35;15.73;;;15.00;99.90;;;;;;5028837;28;20383;-70
2023/09/01 08:10:44;;;;;;;27.17;14.45;;;15.10;99.90;;;;;;5028720;28;20080;-70
2023/09/01 08:13:10;;;;;;;22.27;15.05;;;15.20;99.90;;;;;;5028974;28;20045;-70
2023/09/01 08:15:36;;;;;;;21.00;13.70;;;15.20;99.90;;;;;;5028794;28;20045;-70
2023/09/01 08:18:02;;;;;;;24.63;14.90;;;15.20;99.90;;;;;;5028338;28;20112;-70
2023/09/01 08:20:28;;;;;;;26.08;13.95;;;15.30;99.90;;;;;;5028950;28;20045;-69
2023/09/01 08:22:54;;;;;;;26.58;14.18;;;15.40;99.90;;;;;;5029343;28;20095;-70
2023/09/01 08:25:19;;;;;;;21.30;14.05;;;15.40;99.90;;;;;;5010579;28;20461;-70
2023/09/01 08:27:45;;;;;;;29.98;15.68;;;15.50;99.90;;;;;;5028779;28;20096;-70
2023/09/01 08:30:11;;;;;;;21.25;14.50;;;15.40;99.90;;;;;;5011044;28;20055;-70
2023/09/01 08:32:40;;;;;;;19.58;13.30;;;15.50;99.90;;;;;;5010611;28;20124;-70
2023/09/01 08:35:07;;;;;;;26.00;14.82;;;15.50;99.90;;;;;;5028852;28;20132;-69
2023/09/01 08:37:32;;;;;;;27.45;14.52;;;15.60;99.90;;;;;;5028609;28;20057;-69
2023/09/01 08:39:58;;;;;;;24.65;13.93;;;15.60;99.90;;;;;;5011176;28;20033;-71
2023/09/01 08:42:26;;;;;;;26.27;15.00;;;15.60;99.90;;;;;;5028948;28;20485;-70
2023/09/01 08:44:53;;;;;;;23.42;14.38;;;15.70;99.90;;;;;;5028629;28;20087;-70
2023/09/01 08:47:23;;;;;;;27.45;14.27;;;15.70;99.90;;;;;;5028721;28;20140;-70
2023/09/01 08:49:53;;;;;;;22.00;13.35;;;15.80;99.90;;;;;;5028439;28;20046;-69
2023/09/01 08:52:19;;;;;;;23.40;14.32;;;15.90;99.90;;;;;;5028512;28;20412;-70
2023/09/01 08:54:46;;;;;;;24.95;13.23;;;15.90;99.90;;;;;;5028492;28;20088;-69
2023/09/01 08:57:12;;;;;;;21.77;12.50;;;15.90;99.90;;;;;;5028247;28;20484;-70
2023/09/01 08:59:38;;;;;;;20.42;13.10;;;16.00;99.90;;;;;;5028645;28;20052;-70
2023/09/01 09:02:07;;;;;;;22.77;11.95;;;16.00;99.90;;;;;;5013813;28;20068;-70
2023/09/01 09:04:34;;;;;;;17.98;11.90;;;16.00;99.90;;;;;;5031961;28;20492;-70
2023/09/01 09:07:17;;;;;;;24.75;12.80;;;16.00;99.90;;;;;;5014057;28;20127;-70
2023/09/01 09:09:59;;;;;;;25.75;13.38;;;16.20;99.90;;;;;;5031754;28;20488;-70
2023/09/01 09:12:35;;;;;;;25.13;12.82;;;16.20;99.90;;;;;;5031787;28;20408;-70
2023/09/01 09:15:03;;;;;;;19.50;12.45;;;16.30;99.90;;;;;;5013855;28;20095;-69
2023/09/01 09:17:45;;;;;;;21.15;12.55;;;16.30;99.90;;;;;;5013806;28;20068;-71
2023/09/01 09:20:18;;;;;;;23.70;13.95;;;16.40;99.90;;;;;;5031715;28;20052;-70
2023/09/01 09:22:59;;;;;;;32.85;13.40;;;16.40;99.90;;;;;;5032354;28;20082;-70
2023/09/01 09:25:28;;;;;;;23.80;12.77;;;16.50;99.90;;;;;;5015855;28;20042;-70
2023/09/01 09:27:55;;;;;;;24.98;12.40;;;16.50;99.90;;;;;;5016156;28;20729;-70
2023/09/01 09:30:20;;;;;;;28.15;12.65;;;16.60;99.90;;;;;;5033476;28;20489;-70
2023/09/01 09:32:48;;;;;;;21.13;12.18;;;16.70;99.90;;;;;;5014890;28;20096;-70
2023/09/01 09:35:16;;;;;;;20.00;11.60;;;16.70;99.90;;;;;;4997510;28;20056;-69
2023/09/01 09:37:42;;;;;;;21.75;11.77;;;16.80;99.90;;;;;;5013757;28;20420;-70
2023/09/01 09:40:17;;;;;;;22.08;11.10;;;16.80;99.90;;;;;;5031439;28;20042;-70
2023/09/01 09:42:46;;;;;;;21.00;11.82;;;16.80;99.90;;;;;;5031360;28;20041;-70
2023/09/01 09:45:32;;;;;;;16.73;10.88;;;16.80;99.90;;;;;;5031049;28;20465;-70
2023/09/01 09:48:00;;;;;;;15.95;9.13;;;16.90;99.90;;;;;;5031354;28;20084;-70
2023/09/01 09:50:26;;;;;;;20.27;8.18;;;17.00;99.90;;;;;;5031222;28;20116;-70
2023/09/01 09:53:00;;;;;;;19.27;10.02;;;17.00;99.90;;;;;;5031302;28;20052;-70
2023/09/01 09:55:48;;;;;;;20.33;10.00;;;17.00;99.90;;;;;;5030849;28;20111;-70
2023/09/01 09:58:17;;;;;;;16.40;8.48;;;17.00;99.90;;;;;;5030747;28;20136;-70
2023/09/01 10:00:53;;;;;;;18.15;8.45;;;17.00;99.90;;;;;;5012911;28;20046;-70
2023/09/01 10:03:23;;;;;;;16.20;9.10;;;17.00;99.90;;;;;;5030633;28;20493;-70
2023/09/01 10:05:50;;;;;;;15.30;8.35;;;17.20;99.90;;;;;;5012847;28;20058;-70
2023/09/01 10:08:19;;;;;;;17.23;8.65;;;17.10;99.90;;;;;;5030882;28;20049;-70
2023/09/01 10:10:46;;;;;;;12.43;7.50;;;17.20;99.90;;;;;;5030347;28;20042;-69
2023/09/01 10:13:12;;;;;;;22.67;8.32;;;17.20;99.90;;;;;;5030423;28;20084;-70
2023/09/01 10:15:38;;;;;;;11.77;7.00;;;17.20;99.90;;;;;;5030353;28;20053;-70
2023/09/01 10:18:08;;;;;;;16.45;8.23;;;17.20;99.90;;;;;;4996070;28;20053;-70
2023/09/01 10:20:36;;;;;;;13.20;7.55;;;17.20;99.90;;;;;;5030507;28;20525;-70
2023/09/01 10:23:04;;;;;;;17.92;7.82;;;17.20;99.90;;;;;;5030221;28;20037;-70
2023/09/01 10:25:31;;;;;;;12.43;6.88;;;17.20;99.90;;;;;;5012078;28;20115;-70
2023/09/01 10:28:06;;;;;;;10.88;7.05;;;17.20;99.90;;;;;;5030309;28;20069;-70
2023/09/01 10:30:34;;;;;;;13.07;7.30;;;17.30;99.90;;;;;;5030218;28;20564;-70
2023/09/01 10:33:26;;;;;;;15.00;7.95;;;17.30;99.90;;;;;;5012182;28;20049;-70
2023/09/01 10:35:54;;;;;;;12.85;7.90;;;17.40;99.90;;;;;;5012317;28;20132;-69
2023/09/01 10:38:22;;;;;;;17.48;8.05;;;17.40;99.90;;;;;;5012275;28;20099;-70
2023/09/01 10:40:53;;;;;;;17.50;7.28;;;17.40;99.90;;;;;;5012078;28;20053;-70
2023/09/01 10:43:34;;;;;;;16.77;7.45;;;17.30;99.90;;;;;;5029646;28;20081;-70
2023/09/01 10:46:12;;;;;;;14.70;7.95;;;17.30;99.90;;;;;;5012073;28;20179;-70
2023/09/01 10:48:59;;;;;;;13.85;8.23;;;17.30;99.90;;;;;;5029932;28;20056;-70
2023/09/01 10:51:28;;;;;;;14.23;7.40;;;17.30;99.90;;;;;;5029871;28;20041;-70
2023/09/01 10:53:56;;;;;;;12.43;6.63;;;17.20;99.90;;;;;;5012012;28;20077;-70
2023/09/01 10:56:23;;;;;;;10.57;6.60;;;17.30;99.90;;;;;;5011877;28;20489;-70
2023/09/01 10:58:56;;;;;;;13.90;7.40;;;17.20;99.90;;;;;;5011780;28;20037;-70
2023/09/01 11:01:36;;;;;;;13.43;7.15;;;17.30;99.90;;;;;;5029991;28;20045;-70
2023/09/01 11:04:14;;;;;;;17.55;7.00;;;17.20;99.90;;;;;;5012054;28;20084;-70
2023/09/01 11:07:03;;;;;;;15.85;7.78;;;17.30;99.90;;;;;;5030325;28;20046;-70
2023/09/01 11:09:34;;;;;;;16.90;7.65;;;17.30;99.90;;;;;;5019755;28;20595;-70
2023/09/01 11:12:04;;;;;;;16.55;8.30;;;17.30;99.90;;;;;;5011980;28;20140;-70
2023/09/01 11:14:37;;;;;;;13.68;6.70;;;17.30;99.90;;;;;;5029739;28;20401;-70
2023/09/01 11:17:03;;;;;;;13.43;6.78;;;17.30;99.90;;;;;;5029469;28;20053;-70
2023/09/01 11:19:46;;;;;;;17.50;7.78;;;17.30;99.90;;;;;;5029676;28;20071;-70
2023/09/01 11:22:11;;;;;;;18.42;7.63;;;17.30;99.90;;;;;;5028948;28;20041;-71
2023/09/01 11:24:37;;;;;;;16.15;7.85;;;17.30;99.90;;;;;;5029372;28;20056;-70
2023/09/01 11:27:03;;;;;;;12.50;7.28;;;17.30;99.90;;;;;;5011594;28;20077;-70
2023/09/01 11:29:29;;;;;;;13.55;8.18;;;17.30;99.90;;;;;;5029540;28;20041;-70
2023/09/01 11:31:54;;;;;;;12.35;7.53;;;17.30;99.90;;;;;;5029458;28;20038;-71
2023/09/01 11:34:20;;;;;;;15.48;7.95;;;17.30;99.90;;;;;;5029633;28;20045;-70
2023/09/01 11:36:47;;;;;;;13.80;8.02;;;17.30;99.90;;;;;;5029331;28;20046;-70
2023/09/01 11:39:13;;;;;;;14.80;7.50;;;17.40;99.90;;;;;;5011391;28;20080;-70
2023/09/01 11:41:40;;;;;;;15.57;7.93;;;17.40;99.90;;;;;;5029169;28;20053;-70
2023/09/01 11:44:06;;;;;;;16.80;7.63;;;17.40;99.90;;;;;;5029606;28;20056;-70
2023/09/01 11:46:34;;;;;;;15.10;7.32;;;17.40;99.90;;;;;;5011619;28;20049;-70
2023/09/01 11:49:04;;;;;;;13.35;6.65;;;17.40;99.90;;;;;;5011405;28;20128;-70
2023/09/01 11:51:36;;;;;;;13.75;6.68;;;17.50;99.90;;;;;;5011275;28;20099;-70
2023/09/01 11:54:03;;;;;;;11.13;6.50;;;17.50;99.90;;;;;;4994921;28;20075;-70
2023/09/01 11:56:29;;;;;;;12.30;6.25;;;17.40;99.90;;;;;;5029150;28;20110;-70
2023/09/01 11:58:58;;;;;;;11.55;6.63;;;17.40;99.90;;;;;;5029191;28;20044;-70
2023/09/01 12:01:30;;;;;;;11.65;7.15;;;17.40;99.90;;;;;;5029573;28;20047;-70
2023/09/01 12:04:06;;;;;;;15.55;6.75;;;17.40;99.90;;;;;;5029799;28;20103;-70
2023/09/01 12:06:32;;;;;;;10.55;6.38;;;17.40;99.90;;;;;;5011650;28;20047;-71
2023/09/01 12:09:10;;;;;;;10.88;5.47;;;17.50;99.90;;;;;;5029306;28;20095;-70
2023/09/01 12:11:35;;;;;;;16.33;5.78;;;17.60;99.90;;;;;;5011316;28;20475;-70
2023/09/01 12:14:30;;;;;;;10.77;5.82;;;17.70;99.90;;;;;;4994846;28;20124;-70
2023/09/01 12:16:57;;;;;;;10.70;5.78;;;17.80;99.90;;;;;;5028790;28;20072;-70
2023/09/01 12:19:25;;;;;;;12.63;6.40;;;17.90;99.90;;;;;;5010967;28;20056;-70
2023/09/01 12:21:53;;;;;;;11.48;6.78;;;17.90;99.90;;;;;;5011084;28;20057;-70
2023/09/01 12:24:19;;;;;;;11.30;5.90;;;17.90;99.90;;;;;;5010707;28;20838;-71
2023/09/01 12:26:46;;;;;;;13.40;7.10;;;17.90;99.90;;;;;;5011326;28;20152;-70
2023/09/01 12:29:12;;;;;;;14.65;7.20;;;17.90;99.90;;;;;;5028957;28;20049;-70
2023/09/01 12:31:38;;;;;;;12.73;6.90;;;18.00;99.90;;;;;;5029063;28;20052;-70
2023/09/01 12:34:03;;;;;;;13.90;6.22;;;18.00;99.90;;;;;;5012441;28;20132;-70
2023/09/01 12:36:30;;;;;;;12.10;5.32;;;18.00;99.90;;;;;;5032875;28;20242;-70
2023/09/01 12:38:56;;;;;;;15.15;6.32;;;18.10;99.90;;;;;;5032627;28;20400;-70
2023/09/01 12:41:21;;;;;;;14.55;7.30;;;18.10;99.90;;;;;;5032596;28;20051;-70